Terminal Aerodrome Forecast
Issued by NWS

Home | Current Version | Previous Version | Text Only | Print | Product List | Glossary On
Versions: 1 2 3 4 5 6 7 8 9 10 11 12 13 14 15
189
FTUS46 KSEW 270520
TAFHQM
TAF
KHQM 270520Z 2706/2806 24012G20KT P6SM VCSH SCT022 OVC035
     FM271000 25007KT P6SM VCSH OVC018
     FM271700 24012G22KT P6SM VCSH OVC025
     FM272000 26014G24KT P6SM VCSH BKN035
     FM280400 27010KT P6SM BKN030=

USA.gov is the U.S. government's official web portal to all federal, state and local government web resources and services.